createdAt,value
2022-11-20T00:00:39.410Z,35.20
2022-11-20T00:03:01.199Z,31.60
2022-11-20T00:05:23.034Z,32.73
2022-11-20T00:07:44.943Z,26.90
2022-11-20T00:10:07.224Z,26.00
2022-11-20T00:12:29.097Z,24.60
2022-11-20T00:14:50.878Z,28.87
2022-11-20T00:17:12.733Z,28.40
2022-11-20T00:19:34.512Z,24.53
2022-11-20T00:21:56.382Z,22.07
2022-11-20T00:24:18.372Z,24.40
2022-11-20T00:26:40.228Z,20.93
2022-11-20T00:29:02.792Z,24.03
2022-11-20T00:31:25.488Z,23.10
2022-11-20T00:33:48.350Z,22.63
2022-11-20T00:36:22.610Z,23.33
2022-11-20T00:38:45.965Z,21.60
2022-11-20T00:41:11.820Z,22.83
2022-11-20T00:43:34.138Z,24.03
2022-11-20T00:46:05.436Z,22.70
2022-11-20T00:48:28.509Z,24.83
2022-11-20T00:50:50.621Z,27.40
2022-11-20T00:53:12.406Z,24.63
2022-11-20T00:55:34.326Z,23.73
2022-11-20T00:57:56.163Z,23.20
2022-11-20T01:00:18.202Z,26.70
2022-11-20T01:02:40.045Z,24.90
2022-11-20T01:05:02.070Z,24.90
2022-11-20T01:07:24.178Z,26.23
2022-11-20T01:09:46.198Z,22.63
2022-11-20T01:12:08.015Z,24.43
2022-11-20T01:14:30.008Z,24.57
2022-11-20T01:16:53.248Z,21.07
2022-11-20T01:19:22.945Z,25.87
2022-11-20T01:21:46.813Z,23.43
2022-11-20T01:24:13.194Z,24.20
2022-11-20T01:26:38.835Z,24.00
2022-11-20T01:29:01.648Z,25.03
2022-11-20T01:31:42.500Z,22.57
2022-11-20T01:34:08.435Z,21.03
2022-11-20T01:36:32.475Z,21.40
2022-11-20T01:39:01.470Z,24.75
2022-11-20T01:41:43.838Z,23.70
2022-11-20T01:44:07.030Z,22.20
2022-11-20T01:46:29.244Z,22.97
2022-11-20T01:49:05.494Z,24.30
2022-11-20T01:51:55.835Z,22.57
2022-11-20T01:54:26.336Z,21.77
2022-11-20T01:56:54.331Z,21.17
2022-11-20T01:59:20.902Z,22.90
2022-11-20T02:01:43.174Z,22.93
2022-11-20T02:04:05.566Z,21.03
2022-11-20T02:06:56.490Z,21.67
2022-11-20T02:09:18.652Z,21.80
2022-11-20T02:11:40.796Z,21.67
2022-11-20T02:14:02.553Z,23.37
2022-11-20T02:16:34.427Z,20.70
2022-11-20T02:19:00.059Z,25.37
2022-11-20T02:21:34.743Z,21.53
2022-11-20T02:26:57.218Z,22.00
2022-11-20T02:29:28.054Z,22.90
2022-11-20T02:31:50.224Z,22.97
2022-11-20T02:34:12.260Z,23.43
2022-11-20T02:36:36.996Z,21.10
2022-11-20T02:38:58.830Z,21.00
2022-11-20T02:41:20.816Z,23.50
2022-11-20T02:43:42.627Z,21.20
2022-11-20T02:46:04.433Z,22.47
2022-11-20T02:48:28.190Z,24.33
2022-11-20T02:50:50.973Z,22.40
2022-11-20T02:53:12.836Z,22.27
2022-11-20T02:55:34.785Z,20.97
2022-11-20T02:57:56.883Z,23.93
2022-11-20T03:00:19.044Z,21.73
2022-11-20T03:02:41.021Z,21.47
2022-11-20T03:05:03.800Z,23.37
2022-11-20T03:07:25.866Z,23.57
2022-11-20T03:09:47.681Z,21.43
2022-11-20T03:12:09.761Z,23.37
2022-11-20T03:14:31.597Z,22.53
2022-11-20T03:16:53.604Z,20.97
2022-11-20T03:19:15.542Z,26.03
2022-11-20T03:21:37.426Z,21.37
2022-11-20T03:23:59.196Z,24.03
2022-11-20T03:26:26.710Z,23.00
2022-11-20T03:29:02.120Z,23.13
2022-11-20T03:31:36.234Z,23.90
2022-11-20T03:33:59.875Z,21.77
2022-11-20T03:36:22.577Z,24.08
2022-11-20T03:38:44.647Z,23.47
2022-11-20T03:41:14.132Z,23.63
2022-11-20T03:43:36.680Z,22.93
2022-11-20T03:45:59.232Z,21.33
2022-11-20T03:48:21.056Z,23.70
2022-11-20T03:50:42.880Z,22.23
2022-11-20T03:53:04.771Z,21.33
2022-11-20T03:55:26.646Z,20.37
2022-11-20T03:57:48.530Z,21.17
2022-11-20T04:00:11.325Z,21.80
2022-11-20T04:02:33.252Z,23.23
2022-11-20T04:04:55.058Z,19.93
2022-11-20T04:07:17.053Z,23.03
2022-11-20T04:09:38.936Z,25.53
2022-11-20T04:12:00.809Z,23.33
2022-11-20T04:14:22.841Z,23.50
2022-11-20T04:16:45.039Z,22.93
2022-11-20T04:19:16.366Z,24.63
2022-11-20T04:21:38.636Z,25.57
2022-11-20T04:24:01.031Z,22.13
2022-11-20T04:26:26.921Z,24.10
2022-11-20T04:28:49.428Z,20.20
2022-11-20T04:31:21.548Z,22.90
2022-11-20T04:33:44.706Z,22.93
2022-11-20T04:36:18.545Z,22.40
2022-11-20T04:38:42.161Z,23.27
2022-11-20T04:41:07.834Z,24.65
2022-11-20T04:43:30.821Z,23.43
2022-11-20T04:45:55.921Z,25.20
2022-11-20T04:48:18.391Z,22.13
2022-11-20T04:50:41.980Z,21.17
2022-11-20T04:53:04.141Z,23.27
2022-11-20T04:55:26.457Z,24.33
2022-11-20T04:57:52.636Z,23.97
2022-11-20T05:00:16.350Z,23.50
2022-11-20T05:02:38.936Z,22.30
2022-11-20T05:05:01.526Z,20.60
2022-11-20T05:07:27.195Z,18.23
2022-11-20T05:09:49.513Z,22.87
2022-11-20T05:12:12.320Z,23.43
2022-11-20T05:14:38.319Z,22.53
2022-11-20T05:17:01.809Z,22.53
2022-11-20T05:19:32.952Z,23.58
2022-11-20T05:21:59.235Z,22.93
2022-11-20T05:24:39.658Z,23.20
2022-11-20T05:29:57.788Z,23.13
2022-11-20T05:32:27.338Z,22.10
2022-11-20T05:36:41.348Z,22.70
2022-11-20T05:39:17.427Z,22.47
2022-11-20T05:41:50.893Z,22.40
2022-11-20T05:44:39.040Z,21.77
2022-11-20T05:52:21.642Z,23.73
2022-11-20T05:54:46.527Z,22.37
2022-11-20T05:57:09.547Z,23.30
2022-11-20T05:59:32.853Z,23.67
2022-11-20T06:01:56.215Z,24.00
2022-11-20T06:04:22.150Z,21.73
2022-11-20T06:06:47.817Z,26.17
2022-11-20T06:09:11.861Z,24.57
2022-11-20T06:11:37.540Z,24.70
2022-11-20T06:16:25.599Z,22.85
2022-11-20T06:18:50.148Z,25.02
2022-11-20T06:21:59.667Z,24.30
2022-11-20T06:24:22.543Z,26.83
2022-11-20T06:26:46.132Z,24.07
2022-11-20T06:29:10.140Z,23.93
2022-11-20T06:31:39.071Z,22.85
2022-11-20T06:34:04.094Z,23.17
2022-11-20T06:36:27.454Z,26.80
2022-11-20T06:41:18.432Z,22.30
2022-11-20T06:43:42.897Z,23.17
2022-11-20T06:46:14.952Z,24.87
2022-11-20T06:49:45.837Z,24.47
2022-11-20T06:52:39.563Z,23.40
2022-11-20T06:56:23.511Z,23.93
2022-11-20T06:58:47.518Z,29.55
2022-11-20T07:01:17.145Z,24.80
2022-11-20T07:09:19.038Z,26.67
2022-11-20T07:11:42.357Z,24.63
2022-11-20T07:14:07.087Z,21.63
2022-11-20T07:16:40.439Z,24.00
2022-11-20T07:19:07.267Z,25.43
2022-11-20T07:21:36.433Z,23.27
2022-11-20T07:24:04.564Z,25.20
2022-11-20T07:26:29.150Z,22.50
2022-11-20T07:28:54.434Z,24.17
2022-11-20T07:31:19.602Z,23.90
2022-11-20T07:33:42.961Z,25.53
2022-11-20T08:29:47.647Z,28.80
2022-11-20T08:32:11.522Z,26.90
2022-11-20T08:41:28.284Z,31.58
2022-11-20T08:44:11.489Z,31.40
2022-11-20T08:46:42.854Z,33.10
2022-11-20T08:49:08.822Z,29.90
2022-11-20T08:51:32.190Z,33.90
2022-11-20T08:53:54.966Z,31.93
2022-11-20T08:56:19.008Z,32.27
2022-11-20T08:59:16.120Z,28.67
2022-11-20T09:01:25.066Z,34.40
2022-11-20T09:03:47.737Z,29.77
2022-11-20T09:06:12.922Z,32.77
2022-11-20T09:08:37.163Z,31.63
2022-11-20T09:13:25.333Z,32.93
2022-11-20T09:15:47.446Z,30.87
2022-11-20T09:18:09.567Z,29.83
2022-11-20T09:20:32.675Z,31.60
2022-11-20T09:22:54.551Z,32.13
2022-11-20T09:25:16.937Z,30.70
2022-11-20T09:27:38.912Z,30.33
2022-11-20T09:30:00.731Z,31.87
2022-11-20T09:32:22.565Z,34.70
2022-11-20T09:34:44.448Z,32.93
2022-11-20T09:37:07.847Z,32.13
2022-11-20T09:39:29.791Z,39.63
2022-11-20T09:42:41.817Z,34.70
2022-11-20T09:45:28.416Z,33.23
2022-11-20T09:48:16.028Z,35.77
2022-11-20T09:50:55.630Z,35.70
2022-11-20T09:53:36.031Z,33.50
2022-11-20T09:55:58.822Z,32.13
2022-11-20T09:58:36.659Z,36.73
2022-11-20T10:01:15.265Z,35.43
2022-11-20T10:04:02.098Z,33.73
2022-11-20T10:06:38.342Z,33.40
2022-11-20T10:09:12.434Z,31.33
2022-11-20T10:12:05.205Z,31.15
2022-11-20T10:14:31.384Z,31.27
2022-11-20T10:17:31.391Z,35.03
2022-11-20T10:20:19.137Z,33.40
2022-11-20T10:23:00.949Z,33.47
2022-11-20T10:25:38.499Z,36.80
2022-11-20T10:28:37.509Z,33.57
2022-11-20T10:31:15.780Z,32.43
2022-11-20T10:34:10.539Z,31.87
2022-11-20T10:36:41.842Z,32.63
2022-11-20T10:39:36.455Z,30.20
2022-11-20T10:41:58.600Z,31.42
2022-11-20T10:44:52.319Z,30.90
2022-11-20T10:47:19.474Z,32.03
2022-11-20T10:52:23.939Z,33.60
2022-11-20T10:54:59.148Z,34.33
2022-11-20T10:57:42.293Z,35.27
2022-11-20T11:00:09.676Z,38.87
2022-11-20T11:03:03.183Z,38.40
2022-11-20T11:05:38.674Z,35.87
2022-11-20T11:08:00.856Z,33.73
2022-11-20T11:10:34.053Z,37.83
2022-11-20T11:29:25.333Z,41.35
2022-11-20T11:31:47.319Z,43.33
2022-11-20T11:34:18.844Z,41.97
2022-11-20T11:36:41.534Z,46.73
2022-11-20T11:39:08.125Z,42.37
2022-11-20T11:41:36.671Z,40.50
2022-11-20T11:44:39.430Z,41.97
2022-11-20T11:47:01.923Z,46.77
2022-11-20T11:49:25.145Z,43.17
2022-11-20T11:52:02.705Z,43.95
2022-11-20T11:54:35.050Z,49.37
2022-11-20T11:57:04.842Z,44.60
2022-11-20T12:00:11.273Z,46.87
2022-11-20T12:02:40.710Z,44.97
2022-11-20T12:05:33.175Z,42.07
2022-11-20T12:08:12.126Z,46.77
2022-11-20T12:14:05.039Z,42.83
2022-11-20T12:16:53.744Z,46.63
2022-11-20T12:19:50.799Z,45.50
2022-11-20T12:26:02.430Z,48.83
2022-11-20T12:28:40.969Z,48.23
2022-11-20T12:31:24.933Z,48.47
2022-11-20T12:33:55.748Z,47.90
2022-11-20T12:37:06.856Z,48.63
2022-11-20T12:39:38.265Z,46.13
2022-11-20T12:42:54.837Z,47.10
2022-11-20T12:46:04.215Z,47.43
2022-11-20T12:52:22.227Z,51.77
2022-11-20T12:55:11.643Z,54.83
2022-11-20T13:00:25.436Z,53.80
2022-11-20T13:09:10.922Z,65.37
2022-11-20T13:12:47.926Z,64.47
2022-11-20T13:15:27.669Z,60.70
2022-11-20T13:18:06.673Z,66.70
2022-11-20T13:23:36.882Z,66.17
2022-11-20T13:26:20.605Z,61.50
2022-11-20T13:28:44.053Z,56.13
2022-11-20T13:31:34.963Z,58.80
2022-11-20T13:34:00.784Z,60.63
2022-11-20T13:36:59.701Z,56.40
2022-11-20T13:39:35.936Z,62.43
2022-11-20T13:42:22.273Z,57.87
2022-11-20T13:45:02.433Z,64.63
2022-11-20T13:47:30.429Z,56.30
2022-11-20T13:49:58.531Z,61.77
2022-11-20T13:52:51.974Z,61.17
2022-11-20T13:55:58.050Z,63.07
2022-11-20T13:58:20.612Z,59.60
2022-11-20T14:00:59.466Z,67.13
2022-11-20T14:03:59.086Z,68.27
2022-11-20T14:06:35.744Z,67.90
2022-11-20T14:08:59.256Z,71.37
2022-11-20T14:11:25.441Z,68.93
2022-11-20T14:14:05.811Z,72.03
2022-11-20T14:16:31.780Z,71.60
2022-11-20T14:18:55.452Z,71.60
2022-11-20T14:21:31.013Z,75.38
2022-11-20T14:24:06.454Z,71.33
2022-11-20T14:26:28.534Z,60.37
2022-11-20T14:28:52.425Z,64.20
2022-11-20T14:31:28.894Z,67.80
2022-11-20T14:33:53.974Z,64.93
2022-11-20T14:36:24.557Z,65.93
2022-11-20T14:38:48.459Z,63.03
2022-11-20T14:41:20.653Z,63.27
2022-11-20T14:43:48.851Z,63.90
2022-11-20T14:46:12.297Z,63.03
2022-11-20T14:48:45.475Z,59.53
2022-11-20T14:51:42.306Z,67.50
2022-11-20T14:54:26.909Z,63.80
2022-11-20T14:57:06.467Z,72.50
2022-11-20T14:59:35.442Z,64.90
2022-11-20T15:02:18.195Z,63.60
2022-11-20T15:04:52.178Z,64.97
2022-11-20T15:07:36.361Z,66.72
2022-11-20T15:10:10.498Z,56.08
2022-11-20T15:12:36.945Z,56.35
2022-11-20T15:14:59.761Z,62.23
2022-11-20T15:17:21.699Z,58.63
2022-11-20T15:19:43.704Z,65.83
2022-11-20T15:22:17.304Z,61.10
2022-11-20T15:24:39.235Z,53.73
2022-11-20T15:27:01.178Z,56.17
2022-11-20T15:29:25.115Z,51.00
2022-11-20T15:31:48.123Z,56.92
2022-11-20T15:34:13.661Z,53.20
2022-11-20T15:36:35.634Z,49.10
2022-11-20T15:38:57.409Z,55.33
2022-11-20T15:41:19.238Z,53.40
2022-11-20T15:43:41.165Z,51.47
2022-11-20T15:46:12.267Z,53.13
2022-11-20T15:48:47.630Z,52.60
2022-11-20T15:51:30.055Z,56.23
2022-11-20T15:53:51.910Z,46.07
2022-11-20T15:56:15.359Z,47.97
2022-11-20T15:58:37.288Z,47.88
2022-11-20T16:00:59.281Z,52.20
2022-11-20T16:03:21.284Z,52.10
2022-11-20T16:05:43.663Z,51.57
2022-11-20T16:08:11.358Z,49.47
2022-11-20T16:10:34.203Z,51.60
2022-11-20T16:13:14.333Z,52.93
2022-11-20T16:15:48.422Z,52.07
2022-11-20T16:18:13.090Z,52.78
2022-11-20T16:20:35.108Z,55.70
2022-11-20T16:22:56.892Z,57.00
2022-11-20T16:25:18.795Z,46.83
2022-11-20T16:27:40.742Z,50.40
2022-11-20T16:30:02.803Z,50.17
2022-11-20T16:32:24.690Z,48.70
2022-11-20T16:34:46.553Z,52.67
2022-11-20T16:37:08.495Z,52.10
2022-11-20T16:39:30.357Z,48.17
2022-11-20T16:41:52.753Z,47.43
2022-11-20T16:44:15.256Z,50.17
2022-11-20T16:46:38.105Z,49.90
2022-11-20T16:48:59.968Z,48.53
2022-11-20T16:51:24.154Z,44.57
2022-11-20T16:53:46.055Z,45.33
2022-11-20T16:56:20.235Z,45.10
2022-11-20T16:58:42.449Z,48.08
2022-11-20T17:01:14.880Z,43.73
2022-11-20T17:03:39.351Z,50.13
2022-11-20T17:06:01.221Z,46.35
2022-11-20T17:08:23.036Z,47.10
2022-11-20T17:10:47.467Z,44.70
2022-11-20T17:13:09.357Z,47.47
2022-11-20T17:15:31.708Z,43.80
2022-11-20T17:17:53.605Z,45.40
2022-11-20T17:20:15.442Z,46.20
2022-11-20T17:22:37.319Z,46.87
2022-11-20T17:24:59.326Z,42.73
2022-11-20T17:27:54.758Z,44.27
2022-11-20T17:33:47.691Z,43.93
2022-11-20T17:36:13.719Z,39.90
2022-11-20T17:38:36.360Z,42.13
2022-11-20T18:02:11.005Z,38.85
2022-11-20T18:04:32.940Z,38.17
2022-11-20T18:06:55.225Z,35.90
2022-11-20T18:09:17.286Z,37.60
2022-11-20T18:11:42.637Z,36.30
2022-11-20T18:14:29.349Z,37.93
2022-11-20T18:17:09.203Z,39.53
2022-11-20T18:37:09.893Z,52.83
2022-11-20T18:39:32.059Z,49.65
2022-11-20T18:42:13.014Z,46.07
2022-11-20T18:44:53.806Z,38.53
2022-11-20T18:47:19.393Z,44.13
2022-11-20T18:49:48.464Z,48.03
2022-11-20T18:52:12.387Z,39.80
2022-11-20T18:54:37.044Z,31.92
2022-11-20T18:56:58.998Z,37.50
2022-11-20T18:59:22.013Z,37.00
2022-11-20T19:01:47.064Z,38.53
2022-11-20T19:04:12.580Z,35.93
2022-11-20T19:15:36.156Z,48.07
2022-11-20T19:25:38.328Z,35.77
2022-11-20T19:31:40.487Z,31.83
2022-11-20T19:34:06.483Z,35.50
2022-11-20T19:42:49.975Z,33.93
2022-11-20T19:45:12.156Z,47.50
2022-11-20T19:50:24.103Z,36.43
2022-11-20T19:52:46.036Z,44.13
2022-11-20T19:55:10.106Z,37.90
2022-11-20T19:57:34.052Z,32.92
2022-11-20T19:59:58.657Z,30.92
2022-11-20T20:02:20.889Z,31.40
2022-11-20T20:04:43.777Z,29.67
2022-11-20T20:07:07.559Z,32.07
2022-11-20T20:09:30.746Z,31.77
2022-11-20T20:11:53.206Z,30.73
2022-11-20T20:14:16.927Z,33.27
2022-11-20T20:16:41.720Z,32.72
2022-11-20T20:19:12.070Z,32.67
2022-11-20T20:27:18.564Z,38.47
2022-11-20T20:34:42.112Z,39.67
2022-11-20T20:37:05.551Z,37.90
2022-11-20T20:39:29.626Z,41.63
2022-11-20T20:41:51.780Z,43.13
2022-11-20T20:44:32.241Z,40.83
2022-11-20T20:46:54.761Z,40.77
2022-11-20T20:49:25.981Z,43.10
2022-11-20T20:51:52.810Z,43.25
2022-11-20T20:54:15.610Z,42.93
2022-11-20T20:56:38.644Z,45.13
2022-11-20T20:59:01.526Z,44.37
2022-11-20T21:01:25.825Z,45.73
2022-11-20T21:03:55.069Z,42.33
2022-11-20T21:06:17.646Z,44.47
2022-11-20T21:08:41.617Z,43.67
2022-11-20T21:11:12.770Z,45.03
2022-11-20T21:13:36.904Z,43.90
2022-11-20T21:15:59.293Z,49.63
2022-11-20T21:18:25.425Z,49.93
2022-11-20T21:21:07.750Z,47.27
2022-11-20T21:23:31.482Z,48.10
2022-11-20T21:25:53.994Z,46.92
2022-11-20T21:28:18.368Z,51.67
2022-11-20T21:33:05.849Z,47.55
2022-11-20T21:35:28.429Z,56.57
2022-11-20T21:37:50.831Z,55.83
2022-11-20T21:40:13.199Z,54.53
2022-11-20T21:42:35.287Z,48.20
2022-11-20T21:44:57.451Z,48.47
2022-11-20T21:47:22.468Z,47.70
2022-11-20T21:49:45.111Z,46.57
2022-11-20T21:52:07.500Z,47.03
2022-11-20T21:54:31.833Z,48.87
2022-11-20T21:56:54.884Z,46.10
2022-11-20T21:59:17.009Z,49.93
2022-11-20T22:01:39.610Z,50.27
2022-11-20T22:04:03.385Z,44.20
2022-11-20T22:06:32.642Z,46.08
2022-11-20T22:08:55.523Z,44.73
2022-11-20T22:11:21.493Z,42.70
2022-11-20T22:14:05.591Z,43.90
2022-11-20T22:16:28.107Z,63.67
2022-11-20T22:18:54.081Z,45.87
2022-11-20T22:21:19.575Z,44.90
2022-11-20T22:23:42.123Z,43.60
2022-11-20T22:26:15.206Z,47.50
2022-11-20T22:28:39.286Z,47.30
2022-11-20T22:31:05.003Z,47.60
2022-11-20T22:33:30.103Z,48.40
2022-11-20T22:35:52.347Z,49.13
2022-11-20T22:38:14.567Z,48.67
2022-11-20T22:40:37.773Z,52.50
2022-11-20T22:43:00.163Z,52.47
2022-11-20T22:45:22.613Z,46.57
2022-11-20T22:47:46.259Z,47.30
2022-11-20T22:50:09.128Z,52.60
2022-11-20T22:52:31.449Z,49.60
2022-11-20T22:54:54.767Z,47.30
2022-11-20T22:57:17.145Z,51.60
2022-11-20T22:59:39.792Z,49.70
2022-11-20T23:02:02.073Z,53.37
2022-11-20T23:04:24.316Z,54.37
2022-11-20T23:06:46.710Z,53.03
2022-11-20T23:09:09.977Z,55.73
2022-11-20T23:11:33.494Z,53.47
2022-11-20T23:14:03.093Z,53.40
2022-11-20T23:16:28.606Z,48.67
2022-11-20T23:18:56.990Z,52.87
2022-11-20T23:21:19.851Z,47.07
2022-11-20T23:23:44.202Z,46.50
2022-11-20T23:26:12.674Z,51.38
2022-11-20T23:28:36.114Z,49.93
2022-11-20T23:30:58.934Z,49.67
2022-11-20T23:33:20.919Z,53.83
2022-11-20T23:35:47.049Z,56.60
2022-11-20T23:38:08.999Z,54.60
2022-11-20T23:40:30.916Z,51.00
2022-11-20T23:43:11.277Z,54.03
2022-11-20T23:45:39.709Z,52.67
2022-11-20T23:48:01.720Z,54.40
2022-11-20T23:50:24.088Z,54.40
2022-11-20T23:52:46.001Z,53.63
2022-11-20T23:55:08.311Z,57.87
2022-11-20T23:57:30.247Z,57.77
2022-11-20T23:59:52.204Z,57.63
